createdAt,value
2023-05-10T00:00:45.665Z,13.40
2023-05-10T00:03:12.220Z,13.50
2023-05-10T00:05:38.906Z,13.42
2023-05-10T00:08:05.699Z,13.45
2023-05-10T00:10:32.263Z,13.52
2023-05-10T00:12:59.141Z,13.41
2023-05-10T00:15:25.673Z,13.40
2023-05-10T00:17:52.388Z,13.26
2023-05-10T00:20:19.116Z,13.27
2023-05-10T00:22:45.822Z,13.25
2023-05-10T00:25:12.266Z,13.22
2023-05-10T00:27:38.718Z,13.60
2023-05-10T00:30:06.297Z,13.67
2023-05-10T00:32:33.154Z,13.31
2023-05-10T00:35:00.737Z,13.48
2023-05-10T00:37:27.319Z,13.24
2023-05-10T00:39:54.187Z,13.30
2023-05-10T00:42:20.601Z,13.45
2023-05-10T00:44:47.614Z,13.46
2023-05-10T00:47:14.419Z,13.38
2023-05-10T00:49:42.681Z,13.08
2023-05-10T00:52:10.654Z,13.29
2023-05-10T00:54:37.836Z,13.07
2023-05-10T00:57:05.006Z,13.30
2023-05-10T00:59:31.874Z,13.14
2023-05-10T01:01:59.356Z,13.09
2023-05-10T01:04:27.088Z,13.14
2023-05-10T01:06:54.618Z,13.19
2023-05-10T01:09:23.430Z,13.24
2023-05-10T01:11:51.259Z,13.12
2023-05-10T01:14:20.837Z,13.40
2023-05-10T01:16:50.282Z,13.22
2023-05-10T01:19:26.792Z,13.30
2023-05-10T01:22:15.219Z,13.48
2023-05-10T01:25:18.469Z,13.09
2023-05-10T01:28:08.224Z,13.03
2023-05-10T01:30:57.989Z,12.95
2023-05-10T01:33:40.603Z,13.03
2023-05-10T01:36:27.800Z,12.91
2023-05-10T01:39:10.123Z,12.75
2023-05-10T01:41:53.046Z,13.04
2023-05-10T01:44:43.905Z,13.01
2023-05-10T01:47:25.302Z,12.85
2023-05-10T01:49:57.029Z,13.10
2023-05-10T01:52:37.614Z,13.07
2023-05-10T01:55:10.015Z,13.26
2023-05-10T01:57:41.272Z,13.38
2023-05-10T02:00:11.579Z,13.26
2023-05-10T02:02:43.371Z,13.12
2023-05-10T02:05:15.294Z,13.39
2023-05-10T02:07:43.992Z,13.30
2023-05-10T02:10:14.420Z,13.49
2023-05-10T02:12:48.570Z,13.16
2023-05-10T02:15:23.783Z,13.23
2023-05-10T02:17:51.241Z,13.01
2023-05-10T02:20:21.312Z,12.79
2023-05-10T02:22:53.420Z,13.03
2023-05-10T02:25:24.418Z,12.98
2023-05-10T02:27:56.936Z,13.06
2023-05-10T02:30:25.965Z,12.77
2023-05-10T02:32:54.411Z,12.96
2023-05-10T02:35:24.127Z,12.95
2023-05-10T02:37:52.201Z,13.18
2023-05-10T02:40:23.482Z,13.35
2023-05-10T02:42:54.926Z,13.19
2023-05-10T02:45:29.072Z,12.83
2023-05-10T02:47:57.628Z,13.09
2023-05-10T02:50:31.059Z,12.73
2023-05-10T02:53:04.756Z,13.14
2023-05-10T02:55:39.850Z,13.26
2023-05-10T02:58:07.288Z,13.15
2023-05-10T03:00:34.031Z,13.14
2023-05-10T03:03:01.354Z,13.23
2023-05-10T03:05:27.922Z,12.79
2023-05-10T03:07:56.534Z,13.03
2023-05-10T03:10:31.663Z,12.95
2023-05-10T03:13:15.953Z,12.79
2023-05-10T03:16:05.067Z,13.07
2023-05-10T03:19:02.692Z,12.87
2023-05-10T03:21:32.664Z,13.05
2023-05-10T03:24:08.996Z,12.93
2023-05-10T03:26:38.408Z,13.02
2023-05-10T03:29:08.580Z,13.06
2023-05-10T03:31:35.232Z,12.67
2023-05-10T03:34:02.228Z,12.76
2023-05-10T03:36:29.068Z,12.65
2023-05-10T03:38:55.551Z,12.96
2023-05-10T03:41:22.473Z,13.10
2023-05-10T03:43:48.984Z,12.95
2023-05-10T03:46:15.581Z,13.16
2023-05-10T03:48:42.037Z,12.88
2023-05-10T03:51:08.426Z,13.16
2023-05-10T03:53:34.837Z,12.68
2023-05-10T03:56:01.415Z,12.87
2023-05-10T03:58:28.091Z,12.83
2023-05-10T04:00:54.613Z,12.89
2023-05-10T04:03:21.494Z,12.94
2023-05-10T04:05:48.038Z,12.84
2023-05-10T04:08:15.710Z,13.13
2023-05-10T04:10:42.202Z,13.05
2023-05-10T04:13:08.721Z,12.70
2023-05-10T04:15:36.464Z,12.97
2023-05-10T04:18:02.973Z,12.74
2023-05-10T04:20:29.605Z,12.72
2023-05-10T04:22:56.081Z,13.04
2023-05-10T04:25:22.627Z,13.06
2023-05-10T04:27:49.116Z,12.67
2023-05-10T04:30:15.943Z,12.82
2023-05-10T04:32:44.102Z,12.88
2023-05-10T04:35:11.596Z,12.82
2023-05-10T04:37:38.056Z,13.09
2023-05-10T04:40:05.401Z,13.26
2023-05-10T04:42:31.818Z,12.94
2023-05-10T04:44:58.364Z,12.87
2023-05-10T04:47:24.800Z,13.19
2023-05-10T04:49:51.249Z,12.98
2023-05-10T04:52:18.806Z,12.56
2023-05-10T04:54:45.313Z,12.68
2023-05-10T04:57:11.781Z,12.76
2023-05-10T04:59:38.567Z,12.83
2023-05-10T05:02:06.277Z,13.10
2023-05-10T05:04:32.986Z,12.72
2023-05-10T05:06:59.468Z,12.57
2023-05-10T05:09:26.000Z,12.65
2023-05-10T05:11:52.508Z,13.00
2023-05-10T05:14:19.038Z,12.71
2023-05-10T05:16:45.644Z,12.60
2023-05-10T05:19:12.137Z,12.51
2023-05-10T05:21:38.690Z,12.98
2023-05-10T05:24:06.180Z,12.96
2023-05-10T05:26:32.679Z,13.05
2023-05-10T05:28:59.102Z,12.82
2023-05-10T05:31:26.023Z,13.02
2023-05-10T05:33:52.574Z,13.21
2023-05-10T05:36:19.128Z,13.28
2023-05-10T05:38:45.967Z,13.24
2023-05-10T05:41:12.445Z,13.43
2023-05-10T05:43:39.008Z,13.19
2023-05-10T05:46:06.427Z,13.36
2023-05-10T05:48:33.090Z,13.54
2023-05-10T05:50:59.671Z,13.24
2023-05-10T05:53:26.351Z,13.45
2023-05-10T05:55:55.940Z,13.76
2023-05-10T05:58:23.845Z,13.87
2023-05-10T06:00:52.808Z,13.80
2023-05-10T06:03:20.957Z,13.87
2023-05-10T06:05:48.287Z,13.77
2023-05-10T06:08:15.056Z,13.85
2023-05-10T06:10:41.670Z,13.99
2023-05-10T06:13:08.196Z,14.02
2023-05-10T06:15:35.439Z,14.17
2023-05-10T06:18:03.572Z,14.02
2023-05-10T06:20:32.922Z,14.25
2023-05-10T06:22:59.853Z,14.61
2023-05-10T06:25:27.393Z,14.54
2023-05-10T06:27:58.117Z,14.59
2023-05-10T06:30:30.184Z,14.30
2023-05-10T06:32:57.745Z,14.72
2023-05-10T06:35:24.570Z,14.76
2023-05-10T06:37:53.136Z,14.45
2023-05-10T06:40:20.246Z,14.49
2023-05-10T06:42:48.663Z,14.43
2023-05-10T06:45:17.085Z,14.58
2023-05-10T06:47:44.565Z,14.86
2023-05-10T06:50:12.597Z,14.60
2023-05-10T06:52:40.088Z,14.73
2023-05-10T06:55:07.430Z,14.85
2023-05-10T06:57:33.991Z,14.66
2023-05-10T07:00:00.729Z,14.75
2023-05-10T07:02:28.230Z,14.56
2023-05-10T07:04:55.123Z,14.27
2023-05-10T07:07:22.031Z,14.77
2023-05-10T07:09:48.509Z,14.44
2023-05-10T07:12:16.091Z,14.47
2023-05-10T07:14:43.576Z,14.02
2023-05-10T07:17:11.542Z,14.35
2023-05-10T07:19:38.411Z,14.30
2023-05-10T07:22:04.849Z,14.51
2023-05-10T07:24:32.423Z,15.04
2023-05-10T07:26:59.297Z,15.12
2023-05-10T07:29:26.101Z,15.03
2023-05-10T07:31:52.864Z,14.87
2023-05-10T07:34:19.480Z,14.73
2023-05-10T07:36:46.006Z,14.99
2023-05-10T07:39:16.226Z,14.83
2023-05-10T07:41:47.763Z,15.02
2023-05-10T07:44:14.293Z,14.91
2023-05-10T07:46:40.733Z,15.34
2023-05-10T07:49:07.502Z,15.16
2023-05-10T07:51:34.566Z,15.06
2023-05-10T07:54:01.041Z,14.92
2023-05-10T07:56:32.626Z,15.41
2023-05-10T07:59:00.360Z,15.48
2023-05-10T08:01:31.655Z,15.74
2023-05-10T08:03:58.134Z,15.58
2023-05-10T08:06:24.878Z,15.24
2023-05-10T08:08:51.595Z,15.04
2023-05-10T08:11:19.339Z,15.41
2023-05-10T08:13:51.327Z,15.35
2023-05-10T08:16:18.910Z,15.49
2023-05-10T08:18:47.888Z,15.47
2023-05-10T08:21:16.555Z,15.51
2023-05-10T08:23:44.982Z,15.80
2023-05-10T08:26:12.200Z,15.77
2023-05-10T08:28:38.848Z,15.79
2023-05-10T08:31:06.123Z,16.28
2023-05-10T08:33:32.939Z,16.73
2023-05-10T08:35:59.335Z,16.61
2023-05-10T08:38:26.793Z,17.14
2023-05-10T08:41:00.052Z,17.35
2023-05-10T08:43:30.167Z,16.76
2023-05-10T08:46:00.808Z,16.63
2023-05-10T08:48:31.157Z,16.87
2023-05-10T08:51:01.686Z,16.73
2023-05-10T08:53:33.995Z,16.97
2023-05-10T08:56:02.988Z,17.30
2023-05-10T08:58:29.636Z,17.48
2023-05-10T09:00:58.204Z,17.26
2023-05-10T09:03:24.787Z,17.63
2023-05-10T09:05:51.904Z,17.57
2023-05-10T09:08:20.989Z,17.09
2023-05-10T09:10:49.220Z,16.69
2023-05-10T09:13:16.587Z,16.54
2023-05-10T09:15:46.465Z,16.68
2023-05-10T09:18:13.966Z,16.52
2023-05-10T09:20:41.355Z,16.61
2023-05-10T09:23:08.852Z,16.09
2023-05-10T09:25:36.033Z,16.67
2023-05-10T09:28:02.677Z,17.03
2023-05-10T09:30:31.704Z,17.08
2023-05-10T09:33:01.011Z,16.91
2023-05-10T09:35:32.367Z,16.88
2023-05-10T09:38:06.561Z,16.50
2023-05-10T09:40:33.603Z,16.92
2023-05-10T09:43:03.795Z,17.20
2023-05-10T09:45:36.196Z,17.24
2023-05-10T09:48:06.910Z,17.34
2023-05-10T09:50:35.028Z,16.99
2023-05-10T09:53:04.936Z,16.86
2023-05-10T09:55:47.859Z,16.73
2023-05-10T09:58:15.630Z,15.56
2023-05-10T10:00:46.539Z,15.91
2023-05-10T10:03:16.436Z,15.88
2023-05-10T10:05:45.503Z,15.53
2023-05-10T10:08:13.486Z,15.69
2023-05-10T10:10:41.843Z,15.70
2023-05-10T10:13:09.500Z,15.68
2023-05-10T10:15:36.994Z,15.81
2023-05-10T10:18:05.257Z,15.77
2023-05-10T10:20:32.340Z,15.77
2023-05-10T10:22:58.908Z,15.91
2023-05-10T10:25:26.773Z,16.03
2023-05-10T10:27:53.344Z,16.18
2023-05-10T10:30:39.767Z,16.02
2023-05-10T10:33:41.242Z,16.20
2023-05-10T10:36:08.667Z,16.24
2023-05-10T10:39:00.096Z,16.32
2023-05-10T10:41:32.552Z,16.28
2023-05-10T10:44:28.457Z,16.22
2023-05-10T10:47:08.398Z,16.09
2023-05-10T10:49:49.083Z,16.62
2023-05-10T10:52:38.618Z,16.55
2023-05-10T10:55:07.960Z,16.88
2023-05-10T10:57:44.067Z,17.31
2023-05-10T11:00:31.548Z,17.37
2023-05-10T11:03:07.552Z,17.37
2023-05-10T11:05:50.806Z,17.21
2023-05-10T11:08:27.931Z,17.00
2023-05-10T11:11:08.091Z,17.52
2023-05-10T11:13:44.531Z,17.69
2023-05-10T11:16:15.515Z,17.47
2023-05-10T11:18:58.983Z,17.72
2023-05-10T11:21:25.833Z,17.76
2023-05-10T11:23:57.538Z,17.60
2023-05-10T11:26:27.039Z,17.27
2023-05-10T11:28:56.310Z,17.58
2023-05-10T11:31:24.341Z,18.01
2023-05-10T11:33:54.930Z,17.93
2023-05-10T11:36:27.843Z,18.04
2023-05-10T11:38:57.283Z,18.53
2023-05-10T11:41:26.128Z,18.55
2023-05-10T11:43:55.661Z,18.21
2023-05-10T11:46:25.246Z,18.50
2023-05-10T11:48:55.592Z,18.77
2023-05-10T11:51:25.302Z,19.10
2023-05-10T11:53:56.377Z,18.73
2023-05-10T11:56:24.267Z,18.67
2023-05-10T11:58:59.290Z,19.05
2023-05-10T12:01:30.256Z,18.43
2023-05-10T12:04:01.138Z,18.76
2023-05-10T12:06:32.752Z,18.90
2023-05-10T12:08:59.800Z,19.32
2023-05-10T12:11:29.598Z,19.55
2023-05-10T12:13:57.310Z,19.14
2023-05-10T12:16:29.217Z,19.53
2023-05-10T12:19:00.150Z,19.47
2023-05-10T12:21:31.469Z,20.12
2023-05-10T12:24:06.198Z,19.42
2023-05-10T12:26:33.564Z,19.34
2023-05-10T12:29:19.248Z,19.64
2023-05-10T12:31:57.173Z,19.65
2023-05-10T12:34:35.895Z,18.83
2023-05-10T12:37:04.645Z,18.69
2023-05-10T12:39:47.185Z,19.21
2023-05-10T12:42:13.877Z,18.56
2023-05-10T12:44:41.169Z,18.98
2023-05-10T12:47:07.922Z,19.09
2023-05-10T12:49:34.886Z,18.90
2023-05-10T12:52:01.410Z,18.39
2023-05-10T12:54:28.729Z,18.48
2023-05-10T12:56:55.281Z,17.61
2023-05-10T12:59:21.751Z,17.24
2023-05-10T13:01:48.312Z,16.95
2023-05-10T13:04:14.833Z,17.06
2023-05-10T13:06:41.266Z,17.08
2023-05-10T13:09:07.853Z,16.85
2023-05-10T13:11:34.452Z,16.29
2023-05-10T13:14:01.197Z,16.46
2023-05-10T13:16:27.749Z,16.74
2023-05-10T13:18:54.270Z,16.80
2023-05-10T13:21:20.941Z,16.52
2023-05-10T13:23:47.779Z,16.54
2023-05-10T13:26:14.327Z,16.41
2023-05-10T13:28:41.542Z,16.38
2023-05-10T13:31:08.644Z,16.68
2023-05-10T13:33:35.083Z,17.14
2023-05-10T13:36:01.564Z,17.44
2023-05-10T13:38:28.190Z,17.41
2023-05-10T13:40:54.682Z,17.47
2023-05-10T13:43:21.451Z,17.46
2023-05-10T13:45:47.945Z,17.38
2023-05-10T13:48:14.401Z,17.69
2023-05-10T13:50:41.162Z,17.67
2023-05-10T13:53:07.677Z,17.79
2023-05-10T13:55:34.563Z,17.64
2023-05-10T13:58:01.039Z,17.86
2023-05-10T14:00:27.889Z,17.85
2023-05-10T14:02:55.011Z,17.81
2023-05-10T14:05:25.346Z,17.49
2023-05-10T14:07:52.822Z,17.65
2023-05-10T14:10:19.371Z,17.26
2023-05-10T14:12:45.938Z,16.98
2023-05-10T14:15:12.660Z,17.03
2023-05-10T14:17:39.295Z,16.90
2023-05-10T14:20:07.114Z,16.88
2023-05-10T14:22:33.701Z,16.87
2023-05-10T14:25:01.815Z,16.86
2023-05-10T14:27:28.295Z,16.84
2023-05-10T14:29:55.024Z,16.99
2023-05-10T14:32:21.562Z,16.74
2023-05-10T14:34:48.054Z,16.56
2023-05-10T14:37:16.055Z,16.68
2023-05-10T14:39:43.307Z,16.92
2023-05-10T14:42:09.902Z,16.90
2023-05-10T14:44:36.363Z,16.23
2023-05-10T14:47:03.410Z,16.50
2023-05-10T14:49:30.161Z,16.70
2023-05-10T14:51:56.750Z,16.63
2023-05-10T14:54:23.200Z,16.87
2023-05-10T14:56:50.768Z,16.79
2023-05-10T14:59:17.282Z,16.69
2023-05-10T15:01:44.415Z,16.67
2023-05-10T15:04:11.263Z,16.79
2023-05-10T15:06:37.970Z,16.65
2023-05-10T15:09:04.743Z,16.78
2023-05-10T15:11:31.310Z,16.54
2023-05-10T15:13:57.875Z,16.72
2023-05-10T15:16:24.683Z,17.07
2023-05-10T15:18:51.596Z,17.01
2023-05-10T15:21:18.426Z,16.75
2023-05-10T15:23:45.202Z,16.98
2023-05-10T15:26:11.695Z,16.91
2023-05-10T15:28:38.172Z,16.68
2023-05-10T15:31:04.677Z,17.01
2023-05-10T15:33:31.299Z,17.16
2023-05-10T15:35:57.747Z,17.41
2023-05-10T15:38:24.282Z,17.44
2023-05-10T15:40:50.766Z,17.23
2023-05-10T15:43:17.204Z,17.22
2023-05-10T15:45:43.784Z,16.97
2023-05-10T15:48:10.388Z,17.22
2023-05-10T15:50:36.947Z,17.59
2023-05-10T15:53:03.452Z,17.64
2023-05-10T15:55:30.039Z,17.57
2023-05-10T15:57:56.523Z,17.43
2023-05-10T16:00:23.162Z,17.75
2023-05-10T16:02:53.994Z,17.33
2023-05-10T16:05:22.082Z,17.37
2023-05-10T16:07:49.250Z,17.13
2023-05-10T16:10:16.232Z,17.17
2023-05-10T16:12:42.727Z,16.91
2023-05-10T16:15:09.772Z,16.85
2023-05-10T16:17:37.201Z,17.19
2023-05-10T16:20:04.126Z,17.10
2023-05-10T16:22:30.795Z,16.87
2023-05-10T16:24:57.986Z,16.76
2023-05-10T16:27:25.130Z,16.79
2023-05-10T16:29:51.604Z,16.69
2023-05-10T16:32:18.030Z,16.74
2023-05-10T16:34:44.543Z,16.99
2023-05-10T16:37:11.351Z,16.94
2023-05-10T16:39:37.781Z,16.64
2023-05-10T16:42:04.505Z,16.33
2023-05-10T16:44:31.043Z,16.38
2023-05-10T16:46:57.604Z,16.48
2023-05-10T16:49:26.266Z,16.63
2023-05-10T16:51:52.955Z,16.28
2023-05-10T16:54:20.639Z,16.15
2023-05-10T16:56:47.151Z,16.33
2023-05-10T16:59:13.718Z,16.22
2023-05-10T17:01:40.181Z,15.98
2023-05-10T17:04:06.805Z,16.26
2023-05-10T17:06:35.652Z,16.31
2023-05-10T17:09:02.342Z,16.40
2023-05-10T17:11:29.862Z,16.51
2023-05-10T17:13:56.450Z,16.40
2023-05-10T17:16:23.132Z,16.40
2023-05-10T17:18:49.900Z,16.30
2023-05-10T17:21:16.768Z,16.31
2023-05-10T17:23:43.333Z,16.11
2023-05-10T17:26:09.938Z,16.07
2023-05-10T17:28:36.424Z,16.36
2023-05-10T17:31:02.969Z,16.48
2023-05-10T17:33:29.600Z,16.41
2023-05-10T17:35:56.640Z,16.30
2023-05-10T17:38:23.298Z,15.98
2023-05-10T17:40:51.198Z,15.99
2023-05-10T17:43:18.414Z,15.92
2023-05-10T17:45:49.334Z,16.05
2023-05-10T17:48:15.842Z,16.25
2023-05-10T17:50:43.442Z,16.25
2023-05-10T17:53:10.685Z,16.28
2023-05-10T17:55:41.594Z,16.38
2023-05-10T17:58:10.801Z,16.53
2023-05-10T18:00:38.381Z,16.53
2023-05-10T18:03:05.863Z,16.45
2023-05-10T18:05:37.508Z,16.04
2023-05-10T18:08:05.596Z,16.08
2023-05-10T18:10:32.206Z,16.32
2023-05-10T18:12:58.800Z,16.07
2023-05-10T18:15:27.675Z,16.06
2023-05-10T18:17:55.684Z,15.75
2023-05-10T18:20:22.648Z,15.84
2023-05-10T18:22:49.162Z,15.76
2023-05-10T18:25:15.741Z,15.88
2023-05-10T18:27:42.474Z,15.70
2023-05-10T18:30:10.545Z,15.51
2023-05-10T18:32:38.306Z,15.50
2023-05-10T18:35:06.232Z,15.67
2023-05-10T18:37:33.270Z,15.55
2023-05-10T18:39:59.770Z,15.51
2023-05-10T18:42:26.918Z,15.58
2023-05-10T18:44:54.741Z,15.60
2023-05-10T18:47:21.587Z,15.39
2023-05-10T18:49:48.232Z,15.10
2023-05-10T18:52:16.096Z,15.02
2023-05-10T18:54:42.561Z,15.12
2023-05-10T18:57:09.096Z,14.74
2023-05-10T18:59:35.580Z,14.78
2023-05-10T19:02:02.760Z,14.62
2023-05-10T19:04:29.380Z,14.77
2023-05-10T19:06:56.121Z,14.68
2023-05-10T19:09:23.386Z,14.55
2023-05-10T19:11:51.382Z,14.23
2023-05-10T19:14:17.886Z,14.24
2023-05-10T19:16:44.461Z,13.98
2023-05-10T19:19:10.966Z,14.05
2023-05-10T19:21:39.205Z,13.89
2023-05-10T19:24:06.172Z,13.78
2023-05-10T19:26:32.621Z,13.87
2023-05-10T19:28:59.096Z,13.80
2023-05-10T19:31:25.632Z,13.63
2023-05-10T19:33:53.358Z,13.69
2023-05-10T19:36:20.670Z,13.81
2023-05-10T19:38:47.192Z,13.73
2023-05-10T19:41:13.746Z,13.72
2023-05-10T19:43:41.706Z,13.55
2023-05-10T19:46:09.546Z,13.17
2023-05-10T19:48:36.232Z,13.30
2023-05-10T19:51:07.004Z,13.48
2023-05-10T19:53:35.817Z,13.24
2023-05-10T19:56:04.809Z,13.25
2023-05-10T19:58:31.411Z,13.37
2023-05-10T20:00:57.986Z,13.29
2023-05-10T20:03:24.673Z,13.32
2023-05-10T20:05:51.129Z,13.17
2023-05-10T20:08:17.551Z,13.20
2023-05-10T20:10:44.169Z,13.20
2023-05-10T20:13:10.649Z,13.21
2023-05-10T20:15:37.204Z,13.18
2023-05-10T20:18:04.054Z,13.08
2023-05-10T20:20:30.633Z,13.05
2023-05-10T20:22:57.133Z,13.04
2023-05-10T20:25:23.719Z,13.17
2023-05-10T20:27:50.945Z,13.16
2023-05-10T20:30:17.866Z,12.90
2023-05-10T20:32:44.987Z,12.77
2023-05-10T20:35:11.891Z,12.74
2023-05-10T20:37:39.023Z,12.74
2023-05-10T20:40:06.814Z,12.85
2023-05-10T20:42:33.552Z,12.64
2023-05-10T20:45:01.091Z,12.61
2023-05-10T20:47:27.816Z,12.50
2023-05-10T20:49:54.301Z,12.31
2023-05-10T20:52:21.392Z,12.55
2023-05-10T20:54:49.851Z,12.37
2023-05-10T20:57:16.355Z,12.18
2023-05-10T20:59:42.918Z,12.11
2023-05-10T21:02:09.433Z,12.05
2023-05-10T21:04:36.130Z,12.26
2023-05-10T21:07:03.659Z,12.17
2023-05-10T21:09:30.324Z,12.01
2023-05-10T21:11:58.094Z,12.05
2023-05-10T21:14:24.578Z,12.10
2023-05-10T21:16:51.338Z,12.00
2023-05-10T21:19:17.988Z,11.65
2023-05-10T21:21:44.409Z,11.64
2023-05-10T21:24:10.997Z,11.58
2023-05-10T21:26:37.531Z,11.84
2023-05-10T21:29:04.771Z,11.82
2023-05-10T21:31:31.994Z,11.76
2023-05-10T21:33:58.554Z,11.71
2023-05-10T21:36:25.502Z,11.65
2023-05-10T21:38:51.992Z,11.61
2023-05-10T21:41:18.686Z,11.45
2023-05-10T21:43:45.135Z,11.49
2023-05-10T21:46:13.370Z,11.34
2023-05-10T21:48:40.054Z,11.25
2023-05-10T21:51:06.873Z,11.46
2023-05-10T21:53:33.496Z,11.43
2023-05-10T21:55:59.917Z,11.25
2023-05-10T21:58:26.497Z,11.35
2023-05-10T22:00:52.994Z,11.36
2023-05-10T22:03:19.691Z,11.40
2023-05-10T22:05:46.352Z,11.17
2023-05-10T22:08:12.803Z,11.04
2023-05-10T22:10:39.342Z,11.30
2023-05-10T22:13:05.807Z,11.18
2023-05-10T22:15:34.176Z,11.27
2023-05-10T22:18:02.248Z,11.35
2023-05-10T22:20:29.116Z,11.52
2023-05-10T22:22:56.020Z,11.32
2023-05-10T22:25:22.702Z,11.45
2023-05-10T22:27:49.314Z,11.54
2023-05-10T22:30:15.986Z,11.60
2023-05-10T22:32:42.730Z,11.30
2023-05-10T22:35:10.829Z,11.32
2023-05-10T22:37:37.449Z,11.15
2023-05-10T22:40:04.546Z,10.97
2023-05-10T22:42:30.997Z,10.99
2023-05-10T22:44:58.663Z,11.04
2023-05-10T22:47:25.180Z,11.19
2023-05-10T22:49:51.720Z,11.05
2023-05-10T22:52:18.188Z,10.84
2023-05-10T22:54:44.655Z,11.27
2023-05-10T22:57:11.524Z,10.99
2023-05-10T22:59:38.188Z,11.04
2023-05-10T23:02:04.793Z,11.06
2023-05-10T23:04:31.569Z,11.00
2023-05-10T23:06:58.090Z,10.97
2023-05-10T23:09:25.079Z,10.83
2023-05-10T23:11:51.521Z,11.01
2023-05-10T23:14:17.976Z,11.11
2023-05-10T23:16:44.483Z,11.17
2023-05-10T23:19:11.045Z,11.10
2023-05-10T23:21:37.556Z,10.85
2023-05-10T23:24:04.394Z,11.07
2023-05-10T23:26:30.922Z,11.23
2023-05-10T23:28:57.371Z,11.17
2023-05-10T23:31:23.877Z,11.37
2023-05-10T23:33:50.446Z,11.25
2023-05-10T23:36:17.047Z,11.07
2023-05-10T23:38:43.536Z,11.15
2023-05-10T23:41:10.092Z,11.13
2023-05-10T23:43:36.601Z,11.32
2023-05-10T23:46:05.221Z,11.21
2023-05-10T23:48:31.866Z,11.38
2023-05-10T23:50:58.349Z,11.33
2023-05-10T23:53:24.961Z,11.59
2023-05-10T23:55:51.478Z,11.34
2023-05-10T23:58:17.921Z,11.42
